sensor_id;sensor_type;location;lat;lon;timestamp;temperature;humidity
18898;DHT22;9581;49.484;8.556;2023-07-31T00:00:21;19.50;99.90
18898;DHT22;9581;49.484;8.556;2023-07-31T00:02:48;19.50;99.90
18898;DHT22;9581;49.484;8.556;2023-07-31T00:05:15;19.60;99.90
18898;DHT22;9581;49.484;8.556;2023-07-31T00:07:42;19.60;99.90
18898;DHT22;9581;49.484;8.556;2023-07-31T00:10:09;19.90;99.90
18898;DHT22;9581;49.484;8.556;2023-07-31T00:12:38;19.60;99.90
18898;DHT22;9581;49.484;8.556;2023-07-31T00:15:06;19.80;99.90
18898;DHT22;9581;49.484;8.556;2023-07-31T00:17:33;19.80;99.90
18898;DHT22;9581;49.484;8.556;2023-07-31T00:20:00;19.60;99.90
18898;DHT22;9581;49.484;8.556;2023-07-31T00:22:26;19.70;99.90
18898;DHT22;9581;49.484;8.556;2023-07-31T00:24:53;19.60;99.90
18898;DHT22;9581;49.484;8.556;2023-07-31T00:27:20;19.50;99.90
18898;DHT22;9581;49.484;8.556;2023-07-31T00:29:48;19.60;99.90
18898;DHT22;9581;49.484;8.556;2023-07-31T00:32:15;19.80;99.90
18898;DHT22;9581;49.484;8.556;2023-07-31T00:34:42;19.80;99.90
18898;DHT22;9581;49.484;8.556;2023-07-31T00:37:09;19.70;99.90
18898;DHT22;9581;49.484;8.556;2023-07-31T00:39:35;19.80;99.90
18898;DHT22;9581;49.484;8.556;2023-07-31T00:42:03;19.80;99.90
18898;DHT22;9581;49.484;8.556;2023-07-31T00:44:30;19.50;99.90
18898;DHT22;9581;49.484;8.556;2023-07-31T00:46:58;19.50;99.90
18898;DHT22;9581;49.484;8.556;2023-07-31T00:49:25;19.40;99.90
18898;DHT22;9581;49.484;8.556;2023-07-31T00:51:52;19.20;99.90
18898;DHT22;9581;49.484;8.556;2023-07-31T00:54:19;19.10;99.90
18898;DHT22;9581;49.484;8.556;2023-07-31T00:56:46;18.90;99.90
18898;DHT22;9581;49.484;8.556;2023-07-31T00:59:14;19.00;99.90
18898;DHT22;9581;49.484;8.556;2023-07-31T01:01:41;18.90;99.90
18898;DHT22;9581;49.484;8.556;2023-07-31T01:04:09;18.80;99.90
18898;DHT22;9581;49.484;8.556;2023-07-31T01:06:40;18.80;99.90
18898;DHT22;9581;49.484;8.556;2023-07-31T01:09:18;18.80;99.90
18898;DHT22;9581;49.484;8.556;2023-07-31T01:11:50;18.60;99.90
18898;DHT22;9581;49.484;8.556;2023-07-31T01:14:18;18.60;99.90
18898;DHT22;9581;49.484;8.556;2023-07-31T01:16:44;18.60;99.90
18898;DHT22;9581;49.484;8.556;2023-07-31T01:19:14;18.60;99.90
18898;DHT22;9581;49.484;8.556;2023-07-31T01:22:23;18.60;99.90
18898;DHT22;9581;49.484;8.556;2023-07-31T01:25:00;18.50;99.90
18898;DHT22;9581;49.484;8.556;2023-07-31T01:27:35;18.50;99.90
18898;DHT22;9581;49.484;8.556;2023-07-31T01:30:10;18.50;99.90
18898;DHT22;9581;49.484;8.556;2023-07-31T01:32:40;18.50;99.90
18898;DHT22;9581;49.484;8.556;2023-07-31T01:35:09;18.50;99.90
18898;DHT22;9581;49.484;8.556;2023-07-31T01:37:35;18.50;99.90
18898;DHT22;9581;49.484;8.556;2023-07-31T01:40:03;18.50;99.90
18898;DHT22;9581;49.484;8.556;2023-07-31T01:42:30;18.50;99.90
18898;DHT22;9581;49.484;8.556;2023-07-31T01:44:59;18.40;99.90
18898;DHT22;9581;49.484;8.556;2023-07-31T01:47:25;18.40;99.90
18898;DHT22;9581;49.484;8.556;2023-07-31T01:49:52;18.50;99.90
18898;DHT22;9581;49.484;8.556;2023-07-31T01:52:19;18.40;99.90
18898;DHT22;9581;49.484;8.556;2023-07-31T01:54:46;18.40;99.90
18898;DHT22;9581;49.484;8.556;2023-07-31T01:57:12;18.50;99.90
18898;DHT22;9581;49.484;8.556;2023-07-31T01:59:39;18.50;99.90
18898;DHT22;9581;49.484;8.556;2023-07-31T02:02:07;18.60;99.90
18898;DHT22;9581;49.484;8.556;2023-07-31T02:04:34;18.40;99.90
18898;DHT22;9581;49.484;8.556;2023-07-31T02:07:01;18.50;99.90
18898;DHT22;9581;49.484;8.556;2023-07-31T02:09:27;18.60;99.90
18898;DHT22;9581;49.484;8.556;2023-07-31T02:11:54;18.60;99.90
18898;DHT22;9581;49.484;8.556;2023-07-31T02:14:21;18.50;99.90
18898;DHT22;9581;49.484;8.556;2023-07-31T02:16:48;18.50;99.90
18898;DHT22;9581;49.484;8.556;2023-07-31T02:19:16;18.60;99.90
18898;DHT22;9581;49.484;8.556;2023-07-31T02:21:43;18.40;99.90
18898;DHT22;9581;49.484;8.556;2023-07-31T02:24:10;18.40;99.90
18898;DHT22;9581;49.484;8.556;2023-07-31T02:26:36;18.40;99.90
18898;DHT22;9581;49.484;8.556;2023-07-31T02:29:03;18.50;99.90
18898;DHT22;9581;49.484;8.556;2023-07-31T02:31:30;18.50;99.90
18898;DHT22;9581;49.484;8.556;2023-07-31T02:33:57;18.50;99.90
18898;DHT22;9581;49.484;8.556;2023-07-31T02:36:25;18.60;99.90
18898;DHT22;9581;49.484;8.556;2023-07-31T02:38:51;18.50;99.90
18898;DHT22;9581;49.484;8.556;2023-07-31T02:41:18;18.60;99.90
18898;DHT22;9581;49.484;8.556;2023-07-31T02:43:45;18.60;99.90
18898;DHT22;9581;49.484;8.556;2023-07-31T02:46:12;18.50;99.90
18898;DHT22;9581;49.484;8.556;2023-07-31T02:48:38;18.60;99.90
18898;DHT22;9581;49.484;8.556;2023-07-31T02:51:05;18.70;99.90
18898;DHT22;9581;49.484;8.556;2023-07-31T02:53:33;18.70;99.90
18898;DHT22;9581;49.484;8.556;2023-07-31T02:56:00;19.00;99.90
18898;DHT22;9581;49.484;8.556;2023-07-31T02:58:27;19.10;99.90
18898;DHT22;9581;49.484;8.556;2023-07-31T03:00:54;18.90;99.90
18898;DHT22;9581;49.484;8.556;2023-07-31T03:03:20;18.80;99.90
18898;DHT22;9581;49.484;8.556;2023-07-31T03:05:47;18.70;99.90
18898;DHT22;9581;49.484;8.556;2023-07-31T03:08:15;18.60;99.90
18898;DHT22;9581;49.484;8.556;2023-07-31T03:10:43;18.50;99.90
18898;DHT22;9581;49.484;8.556;2023-07-31T03:13:10;18.40;99.90
18898;DHT22;9581;49.484;8.556;2023-07-31T03:15:36;18.50;99.90
18898;DHT22;9581;49.484;8.556;2023-07-31T03:18:03;18.50;99.90
18898;DHT22;9581;49.484;8.556;2023-07-31T03:20:30;18.50;99.90
18898;DHT22;9581;49.484;8.556;2023-07-31T03:22:57;18.50;99.90
18898;DHT22;9581;49.484;8.556;2023-07-31T03:25:24;18.60;99.90
18898;DHT22;9581;49.484;8.556;2023-07-31T03:27:52;18.50;99.90
18898;DHT22;9581;49.484;8.556;2023-07-31T03:30:19;18.40;99.90
18898;DHT22;9581;49.484;8.556;2023-07-31T03:32:45;18.30;99.90
18898;DHT22;9581;49.484;8.556;2023-07-31T03:35:12;18.50;99.90
18898;DHT22;9581;49.484;8.556;2023-07-31T03:37:39;18.40;99.90
18898;DHT22;9581;49.484;8.556;2023-07-31T03:40:07;18.30;99.90
18898;DHT22;9581;49.484;8.556;2023-07-31T03:42:33;18.20;99.90
18898;DHT22;9581;49.484;8.556;2023-07-31T03:45:02;18.20;99.90
18898;DHT22;9581;49.484;8.556;2023-07-31T03:47:29;18.30;99.90
18898;DHT22;9581;49.484;8.556;2023-07-31T03:49:55;18.40;99.90
18898;DHT22;9581;49.484;8.556;2023-07-31T03:52:22;18.50;99.90
18898;DHT22;9581;49.484;8.556;2023-07-31T03:54:49;18.40;99.90
18898;DHT22;9581;49.484;8.556;2023-07-31T03:57:16;18.40;99.90
18898;DHT22;9581;49.484;8.556;2023-07-31T03:59:43;18.60;99.90
18898;DHT22;9581;49.484;8.556;2023-07-31T04:02:11;18.50;99.90
18898;DHT22;9581;49.484;8.556;2023-07-31T04:04:39;18.60;99.90
18898;DHT22;9581;49.484;8.556;2023-07-31T04:07:06;18.60;99.90
18898;DHT22;9581;49.484;8.556;2023-07-31T04:09:33;18.50;99.90
18898;DHT22;9581;49.484;8.556;2023-07-31T04:12:00;18.40;99.90
18898;DHT22;9581;49.484;8.556;2023-07-31T04:14:27;18.30;99.90
18898;DHT22;9581;49.484;8.556;2023-07-31T04:16:53;18.50;99.90
18898;DHT22;9581;49.484;8.556;2023-07-31T04:19:21;18.40;99.90
18898;DHT22;9581;49.484;8.556;2023-07-31T04:21:48;18.50;99.90
18898;DHT22;9581;49.484;8.556;2023-07-31T04:24:15;18.50;99.90
18898;DHT22;9581;49.484;8.556;2023-07-31T04:26:47;18.30;99.90
18898;DHT22;9581;49.484;8.556;2023-07-31T04:29:14;18.50;99.90
18898;DHT22;9581;49.484;8.556;2023-07-31T04:31:41;18.60;99.90
18898;DHT22;9581;49.484;8.556;2023-07-31T04:34:08;18.50;99.90
18898;DHT22;9581;49.484;8.556;2023-07-31T04:36:36;18.50;99.90
18898;DHT22;9581;49.484;8.556;2023-07-31T04:39:03;18.40;99.90
18898;DHT22;9581;49.484;8.556;2023-07-31T04:41:30;18.30;99.90
18898;DHT22;9581;49.484;8.556;2023-07-31T04:43:57;18.60;99.90
18898;DHT22;9581;49.484;8.556;2023-07-31T04:46:23;18.50;99.90
18898;DHT22;9581;49.484;8.556;2023-07-31T04:48:50;18.60;99.90
18898;DHT22;9581;49.484;8.556;2023-07-31T04:51:17;18.40;99.90
18898;DHT22;9581;49.484;8.556;2023-07-31T04:53:45;18.60;99.90
18898;DHT22;9581;49.484;8.556;2023-07-31T04:56:12;18.40;99.90
18898;DHT22;9581;49.484;8.556;2023-07-31T04:58:39;18.50;99.90
18898;DHT22;9581;49.484;8.556;2023-07-31T05:01:06;18.40;99.90
18898;DHT22;9581;49.484;8.556;2023-07-31T05:03:33;18.50;99.90
18898;DHT22;9581;49.484;8.556;2023-07-31T05:05:59;18.50;99.90
18898;DHT22;9581;49.484;8.556;2023-07-31T05:08:26;18.40;99.90
18898;DHT22;9581;49.484;8.556;2023-07-31T05:10:54;18.50;99.90
18898;DHT22;9581;49.484;8.556;2023-07-31T05:13:21;18.50;99.90
18898;DHT22;9581;49.484;8.556;2023-07-31T05:15:48;18.50;99.90
18898;DHT22;9581;49.484;8.556;2023-07-31T05:18:15;18.50;99.90
18898;DHT22;9581;49.484;8.556;2023-07-31T05:20:42;18.80;99.90
18898;DHT22;9581;49.484;8.556;2023-07-31T05:23:09;18.60;99.90
18898;DHT22;9581;49.484;8.556;2023-07-31T05:25:36;18.80;99.90
18898;DHT22;9581;49.484;8.556;2023-07-31T05:28:04;18.80;99.90
18898;DHT22;9581;49.484;8.556;2023-07-31T05:30:31;18.80;99.90
18898;DHT22;9581;49.484;8.556;2023-07-31T05:32:58;18.80;99.90
18898;DHT22;9581;49.484;8.556;2023-07-31T05:35:24;18.60;99.90
18898;DHT22;9581;49.484;8.556;2023-07-31T05:37:51;18.50;99.90
18898;DHT22;9581;49.484;8.556;2023-07-31T05:40:18;18.50;99.90
18898;DHT22;9581;49.484;8.556;2023-07-31T05:42:45;18.50;99.90
18898;DHT22;9581;49.484;8.556;2023-07-31T05:45:13;18.40;99.90
18898;DHT22;9581;49.484;8.556;2023-07-31T05:47:40;18.40;99.90
18898;DHT22;9581;49.484;8.556;2023-07-31T05:50:07;18.30;99.90
18898;DHT22;9581;49.484;8.556;2023-07-31T05:52:34;18.30;99.90
18898;DHT22;9581;49.484;8.556;2023-07-31T05:55:01;18.40;99.90
18898;DHT22;9581;49.484;8.556;2023-07-31T05:57:28;18.50;99.90
18898;DHT22;9581;49.484;8.556;2023-07-31T05:59:55;18.60;99.90
18898;DHT22;9581;49.484;8.556;2023-07-31T06:02:23;18.60;99.90
18898;DHT22;9581;49.484;8.556;2023-07-31T06:04:50;18.40;99.90
18898;DHT22;9581;49.484;8.556;2023-07-31T06:07:16;18.30;99.90
18898;DHT22;9581;49.484;8.556;2023-07-31T06:09:44;18.40;99.90
18898;DHT22;9581;49.484;8.556;2023-07-31T06:12:11;18.60;99.90
18898;DHT22;9581;49.484;8.556;2023-07-31T06:14:38;18.30;99.90
18898;DHT22;9581;49.484;8.556;2023-07-31T06:17:05;18.30;99.90
18898;DHT22;9581;49.484;8.556;2023-07-31T06:19:33;18.50;99.90
18898;DHT22;9581;49.484;8.556;2023-07-31T06:22:00;18.50;99.90
18898;DHT22;9581;49.484;8.556;2023-07-31T06:24:28;18.50;99.90
18898;DHT22;9581;49.484;8.556;2023-07-31T06:26:55;18.50;99.90
18898;DHT22;9581;49.484;8.556;2023-07-31T06:29:23;18.50;99.90
18898;DHT22;9581;49.484;8.556;2023-07-31T06:31:49;18.80;99.90
18898;DHT22;9581;49.484;8.556;2023-07-31T06:34:17;18.70;99.90
18898;DHT22;9581;49.484;8.556;2023-07-31T06:36:45;18.60;99.90
18898;DHT22;9581;49.484;8.556;2023-07-31T06:39:11;18.70;99.90
18898;DHT22;9581;49.484;8.556;2023-07-31T06:41:38;18.70;99.90
18898;DHT22;9581;49.484;8.556;2023-07-31T06:44:05;18.80;99.90
18898;DHT22;9581;49.484;8.556;2023-07-31T06:46:32;18.80;99.90
18898;DHT22;9581;49.484;8.556;2023-07-31T06:48:59;18.90;99.90
18898;DHT22;9581;49.484;8.556;2023-07-31T06:51:26;19.00;99.90
18898;DHT22;9581;49.484;8.556;2023-07-31T06:53:54;19.00;99.90
18898;DHT22;9581;49.484;8.556;2023-07-31T06:56:21;19.30;99.90
18898;DHT22;9581;49.484;8.556;2023-07-31T06:58:49;19.30;99.90
18898;DHT22;9581;49.484;8.556;2023-07-31T07:01:16;19.00;99.90
18898;DHT22;9581;49.484;8.556;2023-07-31T07:03:42;19.00;99.90
18898;DHT22;9581;49.484;8.556;2023-07-31T07:06:09;19.10;99.90
18898;DHT22;9581;49.484;8.556;2023-07-31T07:08:36;19.00;99.90
18898;DHT22;9581;49.484;8.556;2023-07-31T07:11:04;19.20;99.90
18898;DHT22;9581;49.484;8.556;2023-07-31T07:13:31;19.20;99.90
18898;DHT22;9581;49.484;8.556;2023-07-31T07:15:58;19.30;99.90
18898;DHT22;9581;49.484;8.556;2023-07-31T07:18:25;19.00;99.90
18898;DHT22;9581;49.484;8.556;2023-07-31T07:20:53;19.20;99.90
18898;DHT22;9581;49.484;8.556;2023-07-31T07:23:22;19.70;99.90
18898;DHT22;9581;49.484;8.556;2023-07-31T07:25:49;19.60;99.90
18898;DHT22;9581;49.484;8.556;2023-07-31T07:28:18;19.90;99.90
18898;DHT22;9581;49.484;8.556;2023-07-31T07:30:45;19.50;99.90
18898;DHT22;9581;49.484;8.556;2023-07-31T07:33:11;19.90;99.90
18898;DHT22;9581;49.484;8.556;2023-07-31T07:35:39;19.60;99.90
18898;DHT22;9581;49.484;8.556;2023-07-31T07:38:05;19.80;99.90
18898;DHT22;9581;49.484;8.556;2023-07-31T07:40:32;20.00;99.90
18898;DHT22;9581;49.484;8.556;2023-07-31T07:42:59;20.20;99.90
18898;DHT22;9581;49.484;8.556;2023-07-31T07:45:27;20.00;99.90
18898;DHT22;9581;49.484;8.556;2023-07-31T07:47:54;20.10;99.90
18898;DHT22;9581;49.484;8.556;2023-07-31T07:50:20;20.00;99.90
18898;DHT22;9581;49.484;8.556;2023-07-31T07:52:47;19.90;99.90
18898;DHT22;9581;49.484;8.556;2023-07-31T07:55:14;20.20;99.90
18898;DHT22;9581;49.484;8.556;2023-07-31T07:57:41;20.30;99.90
18898;DHT22;9581;49.484;8.556;2023-07-31T08:00:10;20.70;99.90
18898;DHT22;9581;49.484;8.556;2023-07-31T08:02:38;20.40;99.90
18898;DHT22;9581;49.484;8.556;2023-07-31T08:05:06;21.50;99.90
18898;DHT22;9581;49.484;8.556;2023-07-31T08:07:32;21.60;99.90
18898;DHT22;9581;49.484;8.556;2023-07-31T08:09:59;22.10;99.90
18898;DHT22;9581;49.484;8.556;2023-07-31T08:12:26;22.60;99.90
18898;DHT22;9581;49.484;8.556;2023-07-31T08:14:53;22.70;99.90
18898;DHT22;9581;49.484;8.556;2023-07-31T08:17:20;21.90;99.90
18898;DHT22;9581;49.484;8.556;2023-07-31T08:19:48;21.80;99.90
18898;DHT22;9581;49.484;8.556;2023-07-31T08:22:15;21.40;99.90
18898;DHT22;9581;49.484;8.556;2023-07-31T08:24:42;21.30;99.90
18898;DHT22;9581;49.484;8.556;2023-07-31T08:27:08;22.90;99.90
18898;DHT22;9581;49.484;8.556;2023-07-31T08:29:36;22.50;99.90
18898;DHT22;9581;49.484;8.556;2023-07-31T08:32:04;22.30;99.90
18898;DHT22;9581;49.484;8.556;2023-07-31T08:34:31;23.00;99.90
18898;DHT22;9581;49.484;8.556;2023-07-31T08:36:59;23.10;99.90
18898;DHT22;9581;49.484;8.556;2023-07-31T08:39:25;23.00;99.90
18898;DHT22;9581;49.484;8.556;2023-07-31T08:41:58;22.70;99.90
18898;DHT22;9581;49.484;8.556;2023-07-31T08:44:25;23.30;99.90
18898;DHT22;9581;49.484;8.556;2023-07-31T08:46:52;23.60;99.90
18898;DHT22;9581;49.484;8.556;2023-07-31T08:49:20;23.70;99.90
18898;DHT22;9581;49.484;8.556;2023-07-31T08:51:49;23.30;99.90
18898;DHT22;9581;49.484;8.556;2023-07-31T08:54:17;24.20;99.90
18898;DHT22;9581;49.484;8.556;2023-07-31T08:56:44;24.80;99.90
18898;DHT22;9581;49.484;8.556;2023-07-31T08:59:11;24.40;99.90
18898;DHT22;9581;49.484;8.556;2023-07-31T09:01:43;23.00;99.90
18898;DHT22;9581;49.484;8.556;2023-07-31T09:04:15;22.00;99.90
18898;DHT22;9581;49.484;8.556;2023-07-31T09:06:43;22.10;99.90
18898;DHT22;9581;49.484;8.556;2023-07-31T09:09:12;22.00;99.90
18898;DHT22;9581;49.484;8.556;2023-07-31T09:11:40;22.30;99.90
18898;DHT22;9581;49.484;8.556;2023-07-31T09:14:08;22.10;99.90
18898;DHT22;9581;49.484;8.556;2023-07-31T09:16:35;22.40;99.90
18898;DHT22;9581;49.484;8.556;2023-07-31T09:19:02;23.20;99.90
18898;DHT22;9581;49.484;8.556;2023-07-31T09:21:30;24.00;99.90
18898;DHT22;9581;49.484;8.556;2023-07-31T09:23:57;24.30;99.90
18898;DHT22;9581;49.484;8.556;2023-07-31T09:26:32;24.70;99.90
18898;DHT22;9581;49.484;8.556;2023-07-31T09:29:00;24.20;99.90
18898;DHT22;9581;49.484;8.556;2023-07-31T09:31:39;23.90;99.90
18898;DHT22;9581;49.484;8.556;2023-07-31T09:34:06;23.30;99.90
18898;DHT22;9581;49.484;8.556;2023-07-31T09:36:40;23.60;99.90
18898;DHT22;9581;49.484;8.556;2023-07-31T09:39:09;23.90;99.90
18898;DHT22;9581;49.484;8.556;2023-07-31T09:41:36;24.60;99.90
18898;DHT22;9581;49.484;8.556;2023-07-31T09:44:05;25.00;99.90
18898;DHT22;9581;49.484;8.556;2023-07-31T09:46:35;24.40;99.90
18898;DHT22;9581;49.484;8.556;2023-07-31T09:49:06;25.00;99.90
18898;DHT22;9581;49.484;8.556;2023-07-31T09:51:35;25.10;99.90
18898;DHT22;9581;49.484;8.556;2023-07-31T09:54:13;24.60;99.90
18898;DHT22;9581;49.484;8.556;2023-07-31T09:56:43;25.00;99.90
18898;DHT22;9581;49.484;8.556;2023-07-31T09:59:14;25.50;99.90
18898;DHT22;9581;49.484;8.556;2023-07-31T10:01:42;24.60;99.90
18898;DHT22;9581;49.484;8.556;2023-07-31T10:04:09;24.40;99.90
18898;DHT22;9581;49.484;8.556;2023-07-31T10:06:37;24.10;99.90
18898;DHT22;9581;49.484;8.556;2023-07-31T10:09:06;23.60;99.90
18898;DHT22;9581;49.484;8.556;2023-07-31T10:11:36;23.80;99.90
18898;DHT22;9581;49.484;8.556;2023-07-31T10:14:05;23.60;99.90
18898;DHT22;9581;49.484;8.556;2023-07-31T10:16:37;23.60;99.90
18898;DHT22;9581;49.484;8.556;2023-07-31T10:19:05;23.20;99.90
18898;DHT22;9581;49.484;8.556;2023-07-31T10:21:32;22.90;99.90
18898;DHT22;9581;49.484;8.556;2023-07-31T10:24:02;23.20;99.90
18898;DHT22;9581;49.484;8.556;2023-07-31T10:26:31;23.50;99.90
18898;DHT22;9581;49.484;8.556;2023-07-31T10:28:58;24.00;99.90
18898;DHT22;9581;49.484;8.556;2023-07-31T10:31:26;24.30;99.90
18898;DHT22;9581;49.484;8.556;2023-07-31T10:33:56;23.90;99.90
18898;DHT22;9581;49.484;8.556;2023-07-31T10:36:23;23.90;99.90
18898;DHT22;9581;49.484;8.556;2023-07-31T10:38:50;24.00;99.90
18898;DHT22;9581;49.484;8.556;2023-07-31T10:41:17;23.90;99.90
18898;DHT22;9581;49.484;8.556;2023-07-31T10:43:46;24.20;99.90
18898;DHT22;9581;49.484;8.556;2023-07-31T10:46:13;24.30;99.90
18898;DHT22;9581;49.484;8.556;2023-07-31T10:48:41;23.60;99.90
18898;DHT22;9581;49.484;8.556;2023-07-31T10:51:11;23.90;99.90
18898;DHT22;9581;49.484;8.556;2023-07-31T10:53:39;24.00;99.90
18898;DHT22;9581;49.484;8.556;2023-07-31T10:56:08;23.80;99.90
18898;DHT22;9581;49.484;8.556;2023-07-31T10:58:38;23.70;99.90
18898;DHT22;9581;49.484;8.556;2023-07-31T11:01:06;23.40;99.90
18898;DHT22;9581;49.484;8.556;2023-07-31T11:03:43;23.70;99.90
18898;DHT22;9581;49.484;8.556;2023-07-31T11:06:13;23.60;99.90
18898;DHT22;9581;49.484;8.556;2023-07-31T11:08:44;23.90;99.90
18898;DHT22;9581;49.484;8.556;2023-07-31T11:11:12;23.70;99.90
18898;DHT22;9581;49.484;8.556;2023-07-31T11:13:41;23.70;99.90
18898;DHT22;9581;49.484;8.556;2023-07-31T11:16:08;24.30;99.90
18898;DHT22;9581;49.484;8.556;2023-07-31T11:18:35;24.40;99.90
18898;DHT22;9581;49.484;8.556;2023-07-31T11:21:03;23.60;99.90
18898;DHT22;9581;49.484;8.556;2023-07-31T11:23:31;24.10;99.90
18898;DHT22;9581;49.484;8.556;2023-07-31T11:25:59;24.40;99.90
18898;DHT22;9581;49.484;8.556;2023-07-31T11:28:31;24.10;99.90
18898;DHT22;9581;49.484;8.556;2023-07-31T11:30:59;24.30;99.90
18898;DHT22;9581;49.484;8.556;2023-07-31T11:33:26;24.50;99.90
18898;DHT22;9581;49.484;8.556;2023-07-31T11:35:53;24.10;99.90
18898;DHT22;9581;49.484;8.556;2023-07-31T11:38:23;24.00;99.90
18898;DHT22;9581;49.484;8.556;2023-07-31T11:40:52;23.90;99.90
18898;DHT22;9581;49.484;8.556;2023-07-31T11:43:19;23.70;99.90
18898;DHT22;9581;49.484;8.556;2023-07-31T11:45:47;23.40;99.90
18898;DHT22;9581;49.484;8.556;2023-07-31T11:48:21;23.40;99.90
18898;DHT22;9581;49.484;8.556;2023-07-31T11:50:49;24.50;99.90
18898;DHT22;9581;49.484;8.556;2023-07-31T11:53:19;24.80;99.90
18898;DHT22;9581;49.484;8.556;2023-07-31T11:55:47;24.80;99.90
18898;DHT22;9581;49.484;8.556;2023-07-31T11:58:16;24.70;99.90
18898;DHT22;9581;49.484;8.556;2023-07-31T12:00:44;24.10;99.90
18898;DHT22;9581;49.484;8.556;2023-07-31T12:03:11;23.80;99.90
18898;DHT22;9581;49.484;8.556;2023-07-31T12:05:38;23.30;99.90
18898;DHT22;9581;49.484;8.556;2023-07-31T12:08:09;23.20;99.90
18898;DHT22;9581;49.484;8.556;2023-07-31T12:10:37;23.00;99.90
18898;DHT22;9581;49.484;8.556;2023-07-31T12:13:08;23.10;99.90
18898;DHT22;9581;49.484;8.556;2023-07-31T12:15:39;23.20;99.90
18898;DHT22;9581;49.484;8.556;2023-07-31T12:18:08;23.30;99.90
18898;DHT22;9581;49.484;8.556;2023-07-31T12:20:35;23.40;99.90
18898;DHT22;9581;49.484;8.556;2023-07-31T12:23:06;23.50;99.90
18898;DHT22;9581;49.484;8.556;2023-07-31T12:25:33;23.50;99.90
18898;DHT22;9581;49.484;8.556;2023-07-31T12:28:05;23.70;99.90
18898;DHT22;9581;49.484;8.556;2023-07-31T12:30:38;23.70;99.90
18898;DHT22;9581;49.484;8.556;2023-07-31T12:33:06;23.80;99.90
18898;DHT22;9581;49.484;8.556;2023-07-31T12:35:38;23.60;99.90
18898;DHT22;9581;49.484;8.556;2023-07-31T12:38:05;23.60;99.90
18898;DHT22;9581;49.484;8.556;2023-07-31T12:40:32;23.50;99.90
18898;DHT22;9581;49.484;8.556;2023-07-31T12:43:01;23.50;99.90
18898;DHT22;9581;49.484;8.556;2023-07-31T12:45:29;23.50;99.90
18898;DHT22;9581;49.484;8.556;2023-07-31T12:47:57;23.60;99.90
18898;DHT22;9581;49.484;8.556;2023-07-31T12:50:24;23.60;99.90
18898;DHT22;9581;49.484;8.556;2023-07-31T12:52:51;23.60;99.90
18898;DHT22;9581;49.484;8.556;2023-07-31T12:55:18;23.60;99.90
18898;DHT22;9581;49.484;8.556;2023-07-31T12:57:45;23.50;99.90
18898;DHT22;9581;49.484;8.556;2023-07-31T13:00:13;23.60;99.90
18898;DHT22;9581;49.484;8.556;2023-07-31T13:02:40;24.00;99.90
18898;DHT22;9581;49.484;8.556;2023-07-31T13:05:08;24.40;99.90
18898;DHT22;9581;49.484;8.556;2023-07-31T13:07:35;24.60;99.90
18898;DHT22;9581;49.484;8.556;2023-07-31T13:10:02;25.00;99.90
18898;DHT22;9581;49.484;8.556;2023-07-31T13:12:29;24.60;99.90
18898;DHT22;9581;49.484;8.556;2023-07-31T13:14:56;24.90;99.90
18898;DHT22;9581;49.484;8.556;2023-07-31T13:17:23;25.20;99.90
18898;DHT22;9581;49.484;8.556;2023-07-31T13:19:49;26.00;99.90
18898;DHT22;9581;49.484;8.556;2023-07-31T13:22:18;26.30;99.90
18898;DHT22;9581;49.484;8.556;2023-07-31T13:24:45;26.30;99.90
18898;DHT22;9581;49.484;8.556;2023-07-31T13:27:12;26.10;99.90
18898;DHT22;9581;49.484;8.556;2023-07-31T13:29:38;26.00;99.90
18898;DHT22;9581;49.484;8.556;2023-07-31T13:32:05;26.10;99.90
18898;DHT22;9581;49.484;8.556;2023-07-31T13:34:32;25.80;99.90
18898;DHT22;9581;49.484;8.556;2023-07-31T13:36:59;25.90;99.90
18898;DHT22;9581;49.484;8.556;2023-07-31T13:39:27;25.60;99.90
18898;DHT22;9581;49.484;8.556;2023-07-31T13:41:54;25.60;99.90
18898;DHT22;9581;49.484;8.556;2023-07-31T13:44:20;25.50;99.90
18898;DHT22;9581;49.484;8.556;2023-07-31T13:46:47;25.50;99.90
18898;DHT22;9581;49.484;8.556;2023-07-31T13:49:14;25.20;99.90
18898;DHT22;9581;49.484;8.556;2023-07-31T13:51:41;25.10;99.90
18898;DHT22;9581;49.484;8.556;2023-07-31T13:54:08;24.80;99.90
18898;DHT22;9581;49.484;8.556;2023-07-31T13:56:38;24.40;99.90
18898;DHT22;9581;49.484;8.556;2023-07-31T13:59:05;24.50;99.90
18898;DHT22;9581;49.484;8.556;2023-07-31T14:01:31;24.30;99.90
18898;DHT22;9581;49.484;8.556;2023-07-31T14:03:58;24.20;99.90
18898;DHT22;9581;49.484;8.556;2023-07-31T14:06:25;24.30;99.90
18898;DHT22;9581;49.484;8.556;2023-07-31T14:08:52;24.20;99.90
18898;DHT22;9581;49.484;8.556;2023-07-31T14:11:19;24.40;99.90
18898;DHT22;9581;49.484;8.556;2023-07-31T14:13:47;24.40;99.90
18898;DHT22;9581;49.484;8.556;2023-07-31T14:16:14;24.30;99.90
18898;DHT22;9581;49.484;8.556;2023-07-31T14:18:41;24.30;99.90
18898;DHT22;9581;49.484;8.556;2023-07-31T14:21:08;24.20;99.90
18898;DHT22;9581;49.484;8.556;2023-07-31T14:23:34;24.20;99.90
18898;DHT22;9581;49.484;8.556;2023-07-31T14:26:01;24.00;99.90
18898;DHT22;9581;49.484;8.556;2023-07-31T14:28:27;24.20;99.90
18898;DHT22;9581;49.484;8.556;2023-07-31T14:30:56;24.20;99.90
18898;DHT22;9581;49.484;8.556;2023-07-31T14:33:22;24.30;99.90
18898;DHT22;9581;49.484;8.556;2023-07-31T14:35:49;24.10;99.90
18898;DHT22;9581;49.484;8.556;2023-07-31T14:38:16;24.20;99.90
18898;DHT22;9581;49.484;8.556;2023-07-31T14:40:43;24.20;99.90
18898;DHT22;9581;49.484;8.556;2023-07-31T14:43:09;24.40;99.90
18898;DHT22;9581;49.484;8.556;2023-07-31T14:45:36;24.40;99.90
18898;DHT22;9581;49.484;8.556;2023-07-31T14:48:05;24.40;99.90
18898;DHT22;9581;49.484;8.556;2023-07-31T14:50:32;24.50;99.90
18898;DHT22;9581;49.484;8.556;2023-07-31T14:52:59;24.60;99.90
18898;DHT22;9581;49.484;8.556;2023-07-31T14:55:26;24.50;99.90
18898;DHT22;9581;49.484;8.556;2023-07-31T14:57:53;24.40;99.90
18898;DHT22;9581;49.484;8.556;2023-07-31T15:00:20;24.40;99.90
18898;DHT22;9581;49.484;8.556;2023-07-31T15:02:47;24.70;99.90
18898;DHT22;9581;49.484;8.556;2023-07-31T15:05:16;24.80;99.90
18898;DHT22;9581;49.484;8.556;2023-07-31T15:07:42;24.80;99.90
18898;DHT22;9581;49.484;8.556;2023-07-31T15:10:09;24.80;99.90
18898;DHT22;9581;49.484;8.556;2023-07-31T15:12:36;25.20;99.90
18898;DHT22;9581;49.484;8.556;2023-07-31T15:15:05;25.20;99.90
18898;DHT22;9581;49.484;8.556;2023-07-31T15:17:32;25.40;99.90
18898;DHT22;9581;49.484;8.556;2023-07-31T15:19:59;25.60;99.90
18898;DHT22;9581;49.484;8.556;2023-07-31T15:22:27;25.60;99.90
18898;DHT22;9581;49.484;8.556;2023-07-31T15:24:54;25.20;99.90
18898;DHT22;9581;49.484;8.556;2023-07-31T15:27:21;25.00;99.90
18898;DHT22;9581;49.484;8.556;2023-07-31T15:29:49;24.80;99.90
18898;DHT22;9581;49.484;8.556;2023-07-31T15:32:16;24.70;99.90
18898;DHT22;9581;49.484;8.556;2023-07-31T15:34:44;24.60;99.90
18898;DHT22;9581;49.484;8.556;2023-07-31T15:37:11;24.60;99.90
18898;DHT22;9581;49.484;8.556;2023-07-31T15:39:39;24.50;99.90
18898;DHT22;9581;49.484;8.556;2023-07-31T15:42:06;24.50;99.90
18898;DHT22;9581;49.484;8.556;2023-07-31T15:44:34;24.30;99.90
18898;DHT22;9581;49.484;8.556;2023-07-31T15:47:01;24.30;99.90